VTBSVDPP

Guest
Details From VTBS - Bangkok Suvarnabhumi Intl
To VDPP - Phnom Penh Intl
Flight Number -
Tags decoded
Created
Modified
Stats Distance 323 nm / 598 km
Max Altitude 0 ft / 0 m
Waypoints 5
Social Downloads 0
Likes 0
Share VATSIM

Download

Looking for another format? Having issues loading an existing format? Contact us
Advertisement - Login to hide

Notes

Requested: VTBS GOMAS BOKAK SATON IKAKO VDPP

Route

VTBS BOKAK SATON IKAKO VDPP

ID Type Via Altitude Latitude Longitude Leg Dist Tot Dist Heading (true) Name
O VTBS APT - 0 ft / 0 m 13.68046˚ 100.74751˚ - 0 nm - Bangkok Suvarnabhumi Intl
BOKAK FIX - 0 ft / 0 m 12.96008˚ 102.49649˚ 110 nm 110 nm 113° / 113° -
SATON FIX - 0 ft / 0 m 12.94944˚ 104.56361˚ 120 nm 231 nm 90° / 91° -
IKAKO FIX - 0 ft / 0 m 11.66122˚ 104.96363˚ 80 nm 312 nm 163° / 163° -
O VDPP APT - 0 ft / 0 m 11.54654˚ 104.84414˚ 9 nm 322 nm 226° / 226° Phnom Penh Intl

Altitude Profile

Advertisement - Login to hide

Weather


0- 5 10 15 20 25 30 35+ Temperature / ° C

Clouds and Precipitation
Forecast for 2018-06-18 18:00 UTC. Updated an hour ago

Ground ~20,000 ft ~40,000 ft Winds

VTBS

Details ICAO VTBS (BKK)
Name Bangkok Suvarnabhumi Intl
Region Thailand
Timezone Asia/Bangkok (UTC+7.0)
Stats Elevation 5 ft / 2 m (AMSL)
Location 13.680456° 100.747512°
Runways 2
Magnetic Variation 0.569° W

METAR

VTBS 181630Z 22004KT 9999 FEW020 28/24 Q1005 NOSIG

Decode

TAF

TAF VTBS 181100Z 1812/1918 20008KT 9999 FEW020 TEMPO 1906/1914 VRB10KT 5000 TSRA FEW018CB SCT030 BKN100

Decode

Departure Runways

ID Width Length Bearing (true) Bearing (mag) Surface Threshold Offset Overrun Length
01L 200 ft / 61 m 12,194 ft / 3,717 m 14.26° 14.83° Asphalt 0 ft / 0 m 400 ft / 122 m
01R 200 ft / 61 m 13,181 ft / 4,018 m 14.19° 14.76° Asphalt 0 ft / 0 m 400 ft / 122 m
19L 200 ft / 61 m 13,181 ft / 4,018 m 194.19° 194.76° Asphalt 0 ft / 0 m 400 ft / 122 m
19R 200 ft / 61 m 12,194 ft / 3,717 m 194.26° 194.83° Asphalt 0 ft / 0 m 400 ft / 122 m

VDPP

Details ICAO VDPP (PNH)
Name Phnom Penh Intl
Region Cambodia
Timezone Asia/Phnom_Penh (UTC+7.0)
Stats Elevation 40 ft / 12 m (AMSL)
Location 11.546542° 104.844142°
Runways 1
Magnetic Variation 0.502° W

METAR

VDPP 181630Z 19007KT 9000 SCT015 BKN040 27/25 Q1005

Decode

TAF

TAF VDPP 181100Z 1812/1906 24009KT 9000 SCT017 SCT040 TEMPO 1813/1818 5000 SHRA SCT015 FEW017CB SCT040

Decode

Destination Runways

ID Width Length Bearing (true) Bearing (mag) Surface Threshold Offset Overrun Length
05 144 ft / 44 m 9,815 ft / 2,992 m 45.61° 46.11° Asphalt 400 ft / 122 m 0 ft / 0 m
23 144 ft / 44 m 9,815 ft / 2,992 m 225.61° 226.11° Asphalt 492 ft / 150 m 0 ft / 0 m

Approach Navaids

Runway Type Ident Frequency Range Bearing (true) Bearing (mag) Slope Elevation
23 Localiser IPNP 109.70 MHz 18 nm / 33 km 225.62° 226.12° - 40 ft / 12 m (AMSL)
23 Glidescope IPNP 109.70 MHz 10 nm / 19 km 225.61° 226.11° 3.00° 37 ft / 11 m (AMSL)

Popular Alternatives